createdAt,value
2023-01-15T00:02:19.842Z,4.00
2023-01-15T00:04:51.937Z,4.00
2023-01-15T00:07:19.890Z,3.80
2023-01-15T00:09:47.816Z,3.70
2023-01-15T00:12:16.224Z,3.60
2023-01-15T00:14:45.723Z,3.60
2023-01-15T00:17:13.694Z,3.80
2023-01-15T00:19:42.029Z,3.90
2023-01-15T00:22:10.132Z,3.90
2023-01-15T00:24:57.293Z,4.00
2023-01-15T00:27:41.247Z,4.00
2023-01-15T00:30:12.983Z,4.00
2023-01-15T00:32:42.735Z,4.00
2023-01-15T00:35:17.253Z,3.90
2023-01-15T00:37:45.747Z,3.90
2023-01-15T00:40:17.075Z,3.90
2023-01-15T00:42:54.338Z,4.00
2023-01-15T00:45:24.158Z,4.10
2023-01-15T00:47:52.426Z,4.10
2023-01-15T00:50:22.092Z,4.10
2023-01-15T00:52:50.110Z,4.10
2023-01-15T00:55:18.795Z,4.20
2023-01-15T00:57:46.807Z,4.30
2023-01-15T01:00:15.601Z,4.30
2023-01-15T01:02:44.225Z,4.30
2023-01-15T01:05:12.196Z,4.30
2023-01-15T01:07:40.138Z,4.20
2023-01-15T01:10:09.545Z,4.10
2023-01-15T01:12:37.991Z,4.10
2023-01-15T01:15:07.789Z,4.20
2023-01-15T01:17:38.665Z,4.10
2023-01-15T01:20:07.368Z,4.20
2023-01-15T01:22:36.990Z,4.10
2023-01-15T01:25:05.500Z,4.10
2023-01-15T01:27:33.547Z,4.00
2023-01-15T01:30:02.073Z,3.90
2023-01-15T01:32:31.082Z,3.90
2023-01-15T01:34:59.083Z,3.80
2023-01-15T01:37:32.199Z,3.60
2023-01-15T01:40:00.969Z,3.60
2023-01-15T01:42:29.865Z,3.60
2023-01-15T01:45:05.665Z,3.40
2023-01-15T01:47:36.986Z,3.40
2023-01-15T01:50:10.097Z,3.30
2023-01-15T01:52:46.715Z,3.30
2023-01-15T01:55:18.290Z,3.30
2023-01-15T01:57:50.660Z,3.40
2023-01-15T02:00:20.503Z,3.30
2023-01-15T02:02:49.852Z,3.30
2023-01-15T02:05:30.202Z,3.10
2023-01-15T02:07:58.691Z,2.90
2023-01-15T02:10:27.206Z,3.10
2023-01-15T02:13:04.753Z,3.10
2023-01-15T02:15:39.603Z,3.10
2023-01-15T02:18:21.790Z,3.10
2023-01-15T02:21:07.967Z,3.10
2023-01-15T02:23:57.985Z,2.90
2023-01-15T02:26:38.396Z,3.00
2023-01-15T02:29:13.613Z,3.00
2023-01-15T02:31:45.536Z,2.90
2023-01-15T02:34:19.736Z,2.90
2023-01-15T02:36:58.792Z,2.90
2023-01-15T02:39:29.914Z,2.80
2023-01-15T02:42:03.173Z,2.90
2023-01-15T02:44:47.209Z,3.00
2023-01-15T02:47:20.059Z,3.20
2023-01-15T02:49:49.375Z,3.30
2023-01-15T02:52:30.396Z,3.30
2023-01-15T02:55:09.169Z,3.30
2023-01-15T02:57:45.683Z,3.20
2023-01-15T03:00:19.426Z,3.20
2023-01-15T03:02:54.074Z,3.20
2023-01-15T03:05:31.340Z,3.20
2023-01-15T03:08:02.934Z,3.00
2023-01-15T03:11:06.868Z,2.90
2023-01-15T03:13:59.397Z,2.80
2023-01-15T03:16:39.242Z,2.70
2023-01-15T03:19:18.359Z,2.80
2023-01-15T03:21:55.350Z,2.90
2023-01-15T03:25:01.045Z,2.80
2023-01-15T03:27:32.901Z,2.70
2023-01-15T03:30:09.283Z,2.60
2023-01-15T03:32:37.981Z,2.50
2023-01-15T03:35:29.360Z,2.50
2023-01-15T03:37:57.637Z,2.40
2023-01-15T03:40:26.015Z,2.30
2023-01-15T03:43:22.924Z,2.20
2023-01-15T03:45:57.358Z,2.00
2023-01-15T03:48:38.009Z,1.90
2023-01-15T03:51:56.580Z,1.80
2023-01-15T03:54:45.324Z,1.80
2023-01-15T03:57:37.952Z,1.70
2023-01-15T04:00:30.015Z,1.80
2023-01-15T04:03:06.408Z,1.80
2023-01-15T04:05:37.091Z,1.80
2023-01-15T04:08:08.659Z,1.90
2023-01-15T04:10:37.844Z,2.00
2023-01-15T04:13:11.005Z,2.20
2023-01-15T04:15:41.478Z,2.40
2023-01-15T04:18:09.870Z,2.30
2023-01-15T04:20:37.817Z,2.00
2023-01-15T04:23:06.028Z,2.00
2023-01-15T04:25:34.535Z,2.00
2023-01-15T04:28:03.062Z,2.00
2023-01-15T04:30:32.002Z,1.90
2023-01-15T04:32:59.924Z,1.80
2023-01-15T04:35:30.234Z,1.80
2023-01-15T04:38:00.477Z,1.90
2023-01-15T04:40:47.899Z,2.00
2023-01-15T04:43:34.582Z,1.90
2023-01-15T04:46:03.475Z,1.90
2023-01-15T04:48:31.731Z,1.90
2023-01-15T04:51:04.512Z,2.10
2023-01-15T04:53:33.975Z,2.10
2023-01-15T04:56:04.135Z,2.00
2023-01-15T04:58:33.193Z,1.90
2023-01-15T05:01:01.456Z,1.90
2023-01-15T05:03:31.809Z,1.90
2023-01-15T05:06:03.680Z,1.70
2023-01-15T05:08:56.653Z,1.70
2023-01-15T05:11:25.863Z,1.60
2023-01-15T05:13:54.450Z,1.50
2023-01-15T05:16:26.049Z,1.40
2023-01-15T05:18:57.254Z,1.40
2023-01-15T05:21:27.567Z,1.40
2023-01-15T05:23:57.535Z,1.50
2023-01-15T05:26:26.614Z,1.50
2023-01-15T05:28:56.683Z,1.50
2023-01-15T05:31:26.372Z,1.60
2023-01-15T05:33:55.827Z,1.60
2023-01-15T05:36:29.792Z,1.70
2023-01-15T05:39:02.559Z,1.60
2023-01-15T05:41:49.390Z,1.70
2023-01-15T05:44:24.064Z,1.80
2023-01-15T05:46:55.144Z,1.70
2023-01-15T05:49:25.866Z,1.70
2023-01-15T05:51:54.935Z,1.60
2023-01-15T05:54:26.364Z,1.70
2023-01-15T05:56:55.351Z,1.70
2023-01-15T05:59:25.822Z,1.60
2023-01-15T06:01:54.694Z,1.60
2023-01-15T06:04:25.359Z,1.70
2023-01-15T06:06:55.812Z,1.70
2023-01-15T06:09:24.883Z,1.80
2023-01-15T06:11:54.273Z,1.80
2023-01-15T06:14:23.874Z,1.90
2023-01-15T06:16:52.709Z,1.90
2023-01-15T06:19:21.334Z,1.90
2023-01-15T06:21:49.741Z,1.90
2023-01-15T06:24:20.182Z,1.80
2023-01-15T06:26:48.209Z,1.90
2023-01-15T06:29:19.220Z,1.80
2023-01-15T06:31:49.672Z,1.80
2023-01-15T06:34:17.694Z,1.80
2023-01-15T06:36:46.125Z,1.80
2023-01-15T06:39:14.316Z,1.70
2023-01-15T06:42:01.967Z,1.70
2023-01-15T06:44:48.696Z,1.60
2023-01-15T06:47:23.653Z,1.70
2023-01-15T06:49:57.841Z,1.90
2023-01-15T06:52:27.578Z,1.80
2023-01-15T06:54:55.988Z,1.80
2023-01-15T06:57:24.361Z,1.90
2023-01-15T06:59:52.652Z,2.00
2023-01-15T07:02:22.016Z,2.30
2023-01-15T07:04:53.978Z,2.70
2023-01-15T07:07:23.164Z,2.90
2023-01-15T07:09:51.777Z,2.60
2023-01-15T07:12:20.304Z,2.30
2023-01-15T07:14:48.444Z,2.20
2023-01-15T07:17:16.648Z,2.00
2023-01-15T07:19:45.360Z,2.10
2023-01-15T07:22:13.685Z,2.40
2023-01-15T07:24:41.853Z,2.90
2023-01-15T07:27:09.816Z,3.30
2023-01-15T07:29:37.791Z,3.50
2023-01-15T07:32:06.317Z,4.00
2023-01-15T07:34:34.722Z,4.40
2023-01-15T07:37:02.829Z,4.40
2023-01-15T07:39:32.941Z,4.90
2023-01-15T07:42:20.380Z,5.20
2023-01-15T07:45:07.691Z,5.10
2023-01-15T07:47:53.946Z,5.10
2023-01-15T07:50:24.322Z,4.80
2023-01-15T07:52:53.760Z,4.70
2023-01-15T07:55:23.052Z,4.70
2023-01-15T07:57:51.424Z,4.50
2023-01-15T08:00:25.318Z,4.40
2023-01-15T08:02:53.972Z,4.40
2023-01-15T08:05:22.827Z,4.50
2023-01-15T08:07:51.326Z,4.60
2023-01-15T08:10:19.986Z,4.50
2023-01-15T08:13:08.613Z,4.60
2023-01-15T08:15:40.475Z,4.60
2023-01-15T08:18:08.394Z,4.70
2023-01-15T08:20:37.717Z,4.70
2023-01-15T08:23:06.020Z,4.80
2023-01-15T08:25:35.122Z,4.80
2023-01-15T08:28:04.216Z,4.80
2023-01-15T08:30:32.322Z,4.70
2023-01-15T08:33:03.445Z,4.60
2023-01-15T08:35:32.202Z,4.60
2023-01-15T08:38:03.770Z,4.60
2023-01-15T08:40:32.290Z,4.70
2023-01-15T08:43:00.265Z,4.70
2023-01-15T08:45:28.237Z,4.80
2023-01-15T08:47:58.013Z,4.80
2023-01-15T08:50:26.036Z,4.80
2023-01-15T08:52:54.188Z,4.80
2023-01-15T08:55:22.732Z,4.70
2023-01-15T08:57:51.951Z,4.70
2023-01-15T09:00:20.560Z,4.70
2023-01-15T09:02:50.190Z,4.70
2023-01-15T09:05:19.266Z,4.80
2023-01-15T09:07:48.072Z,4.90
2023-01-15T09:10:17.139Z,5.00
2023-01-15T09:12:45.281Z,5.10
2023-01-15T09:15:14.343Z,5.10
2023-01-15T09:17:42.942Z,5.10
2023-01-15T09:20:13.330Z,5.20
2023-01-15T09:22:41.602Z,5.20
2023-01-15T09:25:10.564Z,5.20
2023-01-15T09:27:38.805Z,5.20
2023-01-15T09:30:08.193Z,5.30
2023-01-15T09:32:36.854Z,5.30
2023-01-15T09:35:05.183Z,5.30
2023-01-15T09:37:49.012Z,5.50
2023-01-15T09:40:49.500Z,5.70
2023-01-15T09:43:51.240Z,5.40
2023-01-15T09:46:25.737Z,5.10
2023-01-15T09:49:04.479Z,5.10
2023-01-15T09:52:14.265Z,5.30
2023-01-15T09:54:50.202Z,5.50
2023-01-15T09:57:21.143Z,5.40
2023-01-15T09:59:50.975Z,5.40
2023-01-15T10:02:47.842Z,5.40
2023-01-15T10:05:24.991Z,5.70
2023-01-15T10:08:14.422Z,6.00
2023-01-15T10:10:52.591Z,5.90
2023-01-15T10:13:43.734Z,6.20
2023-01-15T10:16:37.509Z,6.40
2023-01-15T10:19:05.724Z,6.60
2023-01-15T10:21:51.919Z,6.70
2023-01-15T10:24:32.210Z,6.80
2023-01-15T10:27:03.181Z,6.90
2023-01-15T10:29:53.178Z,6.90
2023-01-15T10:32:30.447Z,7.00
2023-01-15T10:35:12.637Z,7.10
2023-01-15T10:38:38.043Z,7.20
2023-01-15T10:41:27.623Z,7.40
2023-01-15T10:44:18.385Z,7.60
2023-01-15T10:46:58.429Z,7.60
2023-01-15T10:49:30.825Z,7.70
2023-01-15T10:52:11.389Z,7.80
2023-01-15T10:54:54.236Z,7.80
2023-01-15T10:57:37.213Z,7.90
2023-01-15T11:00:06.044Z,7.90
2023-01-15T11:02:42.064Z,8.00
2023-01-15T11:05:22.255Z,8.00
2023-01-15T11:10:41.582Z,8.10
2023-01-15T11:13:37.305Z,8.20
2023-01-15T11:16:25.301Z,8.10
2023-01-15T11:19:12.913Z,8.10
2023-01-15T11:21:42.967Z,8.10
2023-01-15T11:24:16.584Z,8.10
2023-01-15T11:26:53.251Z,8.10
2023-01-15T11:29:37.005Z,8.20
2023-01-15T11:32:17.159Z,8.40
2023-01-15T11:34:54.062Z,8.50
2023-01-15T11:37:22.502Z,8.50
2023-01-15T11:39:58.182Z,8.50
2023-01-15T11:42:44.743Z,8.50
2023-01-15T11:45:35.319Z,8.50
2023-01-15T11:48:33.152Z,8.40
2023-01-15T11:51:14.451Z,8.40
2023-01-15T11:54:05.430Z,8.40
2023-01-15T11:56:36.375Z,8.40
2023-01-15T11:59:12.467Z,8.50
2023-01-15T12:02:07.695Z,8.60
2023-01-15T12:05:06.457Z,8.60
2023-01-15T12:07:40.361Z,8.70
2023-01-15T12:10:18.262Z,8.70
2023-01-15T12:13:11.942Z,8.70
2023-01-15T12:16:02.729Z,8.70
2023-01-15T12:18:43.874Z,8.80
2023-01-15T12:21:33.284Z,8.90
2023-01-15T12:24:07.760Z,9.00
2023-01-15T12:26:50.219Z,9.00
2023-01-15T12:29:24.032Z,9.10
2023-01-15T12:32:04.949Z,9.20
2023-01-15T12:34:42.451Z,9.20
2023-01-15T12:37:35.139Z,9.20
2023-01-15T12:40:15.291Z,9.20
2023-01-15T12:43:04.770Z,9.20
2023-01-15T12:45:41.642Z,9.10
2023-01-15T12:48:31.072Z,9.00
2023-01-15T12:51:02.634Z,8.90
2023-01-15T12:53:36.529Z,8.80
2023-01-15T12:56:24.882Z,8.70
2023-01-15T12:59:06.373Z,8.70
2023-01-15T13:02:03.415Z,8.70
2023-01-15T13:04:52.482Z,8.60
2023-01-15T13:08:05.512Z,8.50
2023-01-15T13:10:36.969Z,8.40
2023-01-15T13:13:20.953Z,8.40
2023-01-15T13:16:07.289Z,8.40
2023-01-15T13:18:36.313Z,8.30
2023-01-15T13:21:13.091Z,8.30
2023-01-15T13:23:56.833Z,8.30
2023-01-15T13:26:51.254Z,8.20
2023-01-15T13:29:47.625Z,8.20
2023-01-15T13:32:21.434Z,8.20
2023-01-15T13:34:59.342Z,8.20
2023-01-15T13:37:35.140Z,8.30
2023-01-15T13:40:23.304Z,8.40
2023-01-15T13:42:52.758Z,8.50
2023-01-15T13:45:37.498Z,8.50
2023-01-15T13:48:24.107Z,8.40
2023-01-15T13:50:55.529Z,8.50
2023-01-15T13:53:29.232Z,8.50
2023-01-15T13:56:06.651Z,8.50
2023-01-15T13:58:39.084Z,8.50
2023-01-15T14:01:17.556Z,8.60
2023-01-15T14:04:04.279Z,8.70
2023-01-15T14:06:43.978Z,8.70
2023-01-15T14:09:29.947Z,8.60
2023-01-15T14:12:29.288Z,8.60
2023-01-15T14:15:04.015Z,8.50
2023-01-15T14:17:49.277Z,8.40
2023-01-15T14:20:37.046Z,8.40
2023-01-15T14:23:33.332Z,8.50
2023-01-15T14:26:22.481Z,8.50
2023-01-15T14:28:59.462Z,8.50
2023-01-15T14:31:43.970Z,8.50
2023-01-15T14:34:28.803Z,8.50
2023-01-15T14:37:04.352Z,8.50
2023-01-15T14:39:41.906Z,8.50
2023-01-15T14:42:40.999Z,8.50
2023-01-15T14:45:36.443Z,8.50
2023-01-15T14:48:26.040Z,8.50
2023-01-15T14:50:54.797Z,8.60
2023-01-15T14:53:38.539Z,8.60
2023-01-15T14:56:26.012Z,8.70
2023-01-15T14:59:02.452Z,8.80
2023-01-15T15:01:46.362Z,8.90
2023-01-15T15:04:40.105Z,8.90
2023-01-15T15:07:12.118Z,9.00
2023-01-15T15:09:44.341Z,9.00
2023-01-15T15:12:21.582Z,9.10
2023-01-15T15:15:11.759Z,9.10
2023-01-15T15:17:58.484Z,9.10
2023-01-15T15:20:31.681Z,9.20
2023-01-15T15:23:27.906Z,9.20
2023-01-15T15:26:04.286Z,9.10
2023-01-15T15:28:32.807Z,9.10
2023-01-15T15:31:01.829Z,9.00
2023-01-15T15:33:41.944Z,8.90
2023-01-15T15:36:10.648Z,8.90
2023-01-15T15:38:42.401Z,8.90
2023-01-15T15:41:13.740Z,9.00
2023-01-15T15:44:15.660Z,9.00
2023-01-15T15:47:08.984Z,9.00
2023-01-15T15:49:43.184Z,9.00
2023-01-15T15:52:24.240Z,8.90
2023-01-15T15:55:03.769Z,8.90
2023-01-15T15:57:35.466Z,8.90
2023-01-15T16:00:04.945Z,8.80
2023-01-15T16:02:38.362Z,8.80
2023-01-15T16:05:32.448Z,8.80
2023-01-15T16:08:16.347Z,8.70
2023-01-15T16:10:51.121Z,8.70
2023-01-15T16:13:33.576Z,8.70
2023-01-15T16:16:05.445Z,8.70
2023-01-15T16:18:41.232Z,8.70
2023-01-15T16:21:10.686Z,8.70
2023-01-15T16:23:40.399Z,8.70
2023-01-15T16:26:33.764Z,8.70
2023-01-15T16:29:07.750Z,8.80
2023-01-15T16:31:38.641Z,8.90
2023-01-15T16:34:07.330Z,9.00
2023-01-15T16:36:41.109Z,9.00
2023-01-15T16:39:41.684Z,9.10
2023-01-15T16:42:27.904Z,9.20
2023-01-15T16:45:01.818Z,9.10
2023-01-15T16:47:33.802Z,9.00
2023-01-15T16:50:26.008Z,9.00
2023-01-15T16:52:56.900Z,8.90
2023-01-15T16:55:44.643Z,8.70
2023-01-15T16:58:13.102Z,8.60
2023-01-15T17:01:02.468Z,8.60
2023-01-15T17:03:32.973Z,8.70
2023-01-15T17:06:11.583Z,8.70
2023-01-15T17:08:44.308Z,8.60
2023-01-15T17:11:30.401Z,8.50
2023-01-15T17:14:09.376Z,8.60
2023-01-15T17:16:38.385Z,8.60
2023-01-15T17:19:08.068Z,8.70
2023-01-15T17:21:38.134Z,8.70
2023-01-15T17:24:11.946Z,8.70
2023-01-15T17:26:40.418Z,8.70
2023-01-15T17:29:11.741Z,8.70
2023-01-15T17:31:40.729Z,8.60
2023-01-15T17:34:11.057Z,8.60
2023-01-15T17:36:39.220Z,8.50
2023-01-15T17:39:12.999Z,8.50
2023-01-15T17:41:41.219Z,8.50
2023-01-15T17:44:10.801Z,8.50
2023-01-15T17:46:39.385Z,8.40
2023-01-15T17:49:08.162Z,8.40
2023-01-15T17:51:36.567Z,8.40
2023-01-15T17:54:48.279Z,8.40
2023-01-15T17:57:35.508Z,8.30
2023-01-15T18:00:23.893Z,8.30
2023-01-15T18:03:11.034Z,8.30
2023-01-15T18:05:40.991Z,8.20
2023-01-15T18:08:12.560Z,8.20
2023-01-15T18:10:41.120Z,8.20
2023-01-15T18:13:09.525Z,8.20
2023-01-15T18:15:37.604Z,8.20
2023-01-15T18:18:05.931Z,8.20
2023-01-15T18:20:34.198Z,8.20
2023-01-15T18:23:02.169Z,8.20
2023-01-15T18:25:30.218Z,8.20
2023-01-15T18:27:58.666Z,8.20
2023-01-15T18:30:26.911Z,8.20
2023-01-15T18:32:55.538Z,8.20
2023-01-15T18:35:24.217Z,8.30
2023-01-15T18:37:52.883Z,8.30
2023-01-15T18:40:21.420Z,8.20
2023-01-15T18:43:08.254Z,8.20
2023-01-15T18:45:54.821Z,8.20
2023-01-15T18:48:23.278Z,8.20
2023-01-15T18:50:53.921Z,8.10
2023-01-15T18:53:22.843Z,8.00
2023-01-15T18:55:50.985Z,8.00
2023-01-15T18:58:19.213Z,8.00
2023-01-15T19:00:47.646Z,8.00
2023-01-15T19:03:15.719Z,7.90
2023-01-15T19:05:44.161Z,7.90
2023-01-15T19:08:12.294Z,7.90
2023-01-15T19:10:40.735Z,7.90
2023-01-15T19:13:08.774Z,7.90
2023-01-15T19:15:55.876Z,7.90
2023-01-15T19:18:42.593Z,7.90
2023-01-15T19:21:13.003Z,7.90
2023-01-15T19:23:41.035Z,7.80
2023-01-15T19:26:09.256Z,7.80
2023-01-15T19:28:37.316Z,7.80
2023-01-15T19:31:28.114Z,7.70
2023-01-15T19:34:13.223Z,7.70
2023-01-15T19:36:46.327Z,7.70
2023-01-15T19:39:17.477Z,7.70
2023-01-15T19:42:05.183Z,7.50
2023-01-15T19:44:51.700Z,7.50
2023-01-15T19:47:55.611Z,7.40
2023-01-15T19:50:37.725Z,7.40
2023-01-15T19:53:09.791Z,7.40
2023-01-15T19:55:40.939Z,7.40
2023-01-15T19:58:11.493Z,7.50
2023-01-15T20:00:40.982Z,7.70
2023-01-15T20:03:11.091Z,7.80
2023-01-15T20:05:42.974Z,7.80
2023-01-15T20:08:14.514Z,7.60
2023-01-15T20:10:44.271Z,7.40
2023-01-15T20:13:38.299Z,7.30
2023-01-15T20:16:12.715Z,7.30
2023-01-15T20:18:40.890Z,7.40
2023-01-15T20:21:12.383Z,7.40
2023-01-15T20:23:42.251Z,7.50
2023-01-15T20:26:36.475Z,7.60
2023-01-15T20:29:04.662Z,7.60
2023-01-15T20:31:34.323Z,7.40
2023-01-15T20:34:02.452Z,7.20
2023-01-15T20:36:34.708Z,7.20
2023-01-15T20:39:04.834Z,7.00
2023-01-15T20:41:51.717Z,7.10
2023-01-15T20:44:58.654Z,7.20
2023-01-15T20:47:47.404Z,7.30
2023-01-15T20:50:17.394Z,7.40
2023-01-15T20:52:48.733Z,7.40
2023-01-15T20:55:19.494Z,7.30
2023-01-15T20:57:48.605Z,7.30
2023-01-15T21:00:18.964Z,7.20
2023-01-15T21:02:48.219Z,7.20
2023-01-15T21:05:16.248Z,7.20
2023-01-15T21:07:44.219Z,7.20
2023-01-15T21:10:13.736Z,7.20
2023-01-15T21:12:42.479Z,7.30
2023-01-15T21:15:11.938Z,7.30
2023-01-15T21:17:40.231Z,7.30
2023-01-15T21:20:12.415Z,7.20
2023-01-15T21:22:40.693Z,7.20
2023-01-15T21:25:10.030Z,7.10
2023-01-15T21:27:38.329Z,7.20
2023-01-15T21:30:07.990Z,7.20
2023-01-15T21:32:36.265Z,7.20
2023-01-15T21:35:04.946Z,7.20
2023-01-15T21:37:34.094Z,7.20
2023-01-15T21:40:02.442Z,7.20
2023-01-15T21:42:49.447Z,7.10
2023-01-15T21:45:17.815Z,7.20
2023-01-15T21:47:46.396Z,7.10
2023-01-15T21:50:17.240Z,7.20
2023-01-15T21:52:45.713Z,7.20
2023-01-15T21:55:13.649Z,7.20
2023-01-15T21:57:41.730Z,7.20
2023-01-15T22:00:13.108Z,7.10
2023-01-15T22:02:41.710Z,6.90
2023-01-15T22:05:10.283Z,6.90
2023-01-15T22:07:38.243Z,6.90
2023-01-15T22:10:07.458Z,6.90
2023-01-15T22:12:39.524Z,6.90
2023-01-15T22:15:08.054Z,6.90
2023-01-15T22:17:36.534Z,6.90
2023-01-15T22:20:06.434Z,6.90
2023-01-15T22:22:36.809Z,6.80
2023-01-15T22:25:07.619Z,6.80
2023-01-15T22:27:40.798Z,6.80
2023-01-15T22:30:10.594Z,6.80
2023-01-15T22:32:39.734Z,6.90
2023-01-15T22:35:08.514Z,6.90
2023-01-15T22:37:36.412Z,7.00
2023-01-15T22:40:06.215Z,7.00
2023-01-15T22:42:34.247Z,7.00
2023-01-15T22:45:04.174Z,7.00
2023-01-15T22:47:32.764Z,7.00
2023-01-15T22:50:00.738Z,7.00
2023-01-15T22:52:28.886Z,7.00
2023-01-15T22:54:57.006Z,7.00
2023-01-15T22:57:25.399Z,7.00
2023-01-15T22:59:53.593Z,7.00
2023-01-15T23:02:42.111Z,7.00
2023-01-15T23:05:11.735Z,6.90
2023-01-15T23:07:41.354Z,7.00
2023-01-15T23:10:11.554Z,6.80
2023-01-15T23:12:42.331Z,6.80
2023-01-15T23:15:16.198Z,6.90
2023-01-15T23:17:44.384Z,7.00
2023-01-15T23:20:13.812Z,6.80
2023-01-15T23:22:42.311Z,6.90
2023-01-15T23:25:10.768Z,6.80
2023-01-15T23:27:38.776Z,6.80
2023-01-15T23:30:08.208Z,6.80
2023-01-15T23:32:39.873Z,6.80
2023-01-15T23:35:09.403Z,6.90
2023-01-15T23:37:37.797Z,7.00
2023-01-15T23:40:07.335Z,7.00
2023-01-15T23:42:54.175Z,7.00
2023-01-15T23:45:41.167Z,7.10
2023-01-15T23:48:09.971Z,7.20
2023-01-15T23:50:37.963Z,7.30
2023-01-15T23:53:06.388Z,7.30
2023-01-15T23:55:34.879Z,7.40
2023-01-15T23:58:02.890Z,7.40
